Cape Elise — V7UL3 — position and weather

sailwx.info

Track history (hours):
 
Tides and Currents Weather Stations Pressure Air Temp Water Temp Dewpoint Dewpoint Depression Visibility Wind Speed Wind Dir Waves Ship Positions

Cape Elise

Last reported at 2018-May-27 19:50 UTC. Time now 2018-Jul-17 13:35 UTC.
Position N 22°42' E 070°00'.
Warning: this ship's position is 50 days out of date.

Length 289 m; draft 17.4 m.

Type: Ship. MMSI: 538003970.

Date/timePositionNaut miles runAvg speedWind from/ knotsBaromVisibWave heightAir tempDewpointWater temp
2018-May-27 19:50N 22°42' E 070°00'0 0.0
2018-May-27 01:14N 22°42' E 069°60'0 0.1
2018-May-27 00:56N 22°42' E 069°60'0 0.0
2018-May-27 00:14N 22°42' E 069°60'0 0.0
2018-May-26 23:44N 22°42' E 069°60'0 0.0
2018-May-25 23:14N 22°42' E 069°60'0 0.0
2018-May-25 20:38N 22°42' E 069°60'0 0.3
2018-May-25 20:14N 22°42' E 069°60'67 2.4
2018-May-24 16:25N 22°23' E 068°50'911.2
2018-May-24 15:34N 22°14' E 068°48'112.3
2018-May-24 15:30N 22°13' E 068°48'13412.7
2018-May-24 04:57N 20°10' E 069°45'612.7
2018-May-24 04:29N 20°05' E 069°48'612.6
2018-May-24 04:00N 19°60' E 069°51'612.6
2018-May-24 03:30N 19°54' E 069°54'612.8
2018-May-24 03:00N 19°48' E 069°57'612.8
2018-May-24 02:30N 19°42' E 069°60'712.8
2018-May-24 01:59N 19°36' E 070°03'612.9
2018-May-24 01:30N 19°31' E 070°06'2113.0
2018-May-23 23:54N 19°12' E 070°15'7313.0
2018-May-23 18:14N 18°06' E 070°50'312.9
2018-May-23 18:00N 18°04' E 070°51'713.1
2018-May-23 17:30N 17°58' E 070°55'8513.0
2018-May-23 10:57N 16°42' E 071°36'7210.2
2018-May-23 03:50N 15°35' E 072°05'612.7
2018-May-23 03:22N 15°30' E 072°07'512.5
2018-May-23 03:00N 15°26' E 072°09'812.3
2018-May-23 02:22N 15°19' E 072°13'  
Track history (hours):
 
Tides and Currents Weather Stations Pressure Air Temp Water Temp Dewpoint Dewpoint Depression Visibility Wind Speed Wind Dir Waves Ship Positions

Cape Elise

Last reported at 2018-May-27 19:50 UTC. Time now 2018-Jul-17 13:35 UTC.
Position N 22°42' E 070°00'.
Warning: this ship's position is 50 days out of date.

Length 289 m; draft 17.4 m.

Type: Ship. MMSI: 538003970.

Date/timePositionNaut miles runAvg speedWind from/ knotsBaromVisibWave heightAir tempDewpointWater temp
2018-May-27 19:50N 22°42' E 070°00'0 0.0
2018-May-27 01:14N 22°42' E 069°60'0 0.1
2018-May-27 00:56N 22°42' E 069°60'0 0.0
2018-May-27 00:14N 22°42' E 069°60'0 0.0
2018-May-26 23:44N 22°42' E 069°60'0 0.0
2018-May-25 23:14N 22°42' E 069°60'0 0.0
2018-May-25 20:38N 22°42' E 069°60'0 0.3
2018-May-25 20:14N 22°42' E 069°60'67 2.4
2018-May-24 16:25N 22°23' E 068°50'911.2
2018-May-24 15:34N 22°14' E 068°48'112.3
2018-May-24 15:30N 22°13' E 068°48'13412.7
2018-May-24 04:57N 20°10' E 069°45'612.7
2018-May-24 04:29N 20°05' E 069°48'612.6
2018-May-24 04:00N 19°60' E 069°51'612.6
2018-May-24 03:30N 19°54' E 069°54'612.8
2018-May-24 03:00N 19°48' E 069°57'612.8
2018-May-24 02:30N 19°42' E 069°60'712.8
2018-May-24 01:59N 19°36' E 070°03'612.9
2018-May-24 01:30N 19°31' E 070°06'2113.0
2018-May-23 23:54N 19°12' E 070°15'7313.0
2018-May-23 18:14N 18°06' E 070°50'312.9
2018-May-23 18:00N 18°04' E 070°51'713.1
2018-May-23 17:30N 17°58' E 070°55'8513.0
2018-May-23 10:57N 16°42' E 071°36'7210.2
2018-May-23 03:50N 15°35' E 072°05'612.7
2018-May-23 03:22N 15°30' E 072°07'512.5
2018-May-23 03:00N 15°26' E 072°09'812.3
2018-May-23 02:22N 15°19' E 072°13'  

Dump ship's entire track history